createdAt,value
2022-10-09T00:01:44.485Z,10.70
2022-10-09T00:04:13.302Z,10.70
2022-10-09T00:06:41.961Z,10.60
2022-10-09T00:09:10.732Z,10.60
2022-10-09T00:11:39.435Z,10.60
2022-10-09T00:14:09.587Z,10.60
2022-10-09T00:16:38.548Z,10.60
2022-10-09T00:19:07.294Z,10.50
2022-10-09T00:21:36.005Z,10.50
2022-10-09T00:24:06.354Z,10.50
2022-10-09T00:26:35.285Z,10.50
2022-10-09T00:29:04.198Z,10.40
2022-10-09T00:31:34.233Z,10.40
2022-10-09T00:34:02.901Z,10.40
2022-10-09T00:36:31.617Z,10.40
2022-10-09T00:39:00.433Z,10.40
2022-10-09T00:41:34.018Z,10.30
2022-10-09T00:44:04.746Z,10.30
2022-10-09T00:46:46.710Z,10.30
2022-10-09T00:49:23.813Z,10.30
2022-10-09T00:51:53.333Z,10.20
2022-10-09T00:54:25.852Z,10.20
2022-10-09T00:56:55.687Z,10.20
2022-10-09T00:59:25.168Z,10.20
2022-10-09T01:01:55.999Z,10.20
2022-10-09T01:04:24.747Z,10.10
2022-10-09T01:07:08.306Z,10.10
2022-10-09T01:09:43.737Z,10.10
2022-10-09T01:12:21.247Z,10.00
2022-10-09T01:14:58.740Z,10.00
2022-10-09T01:17:35.969Z,10.00
2022-10-09T01:20:31.850Z,10.00
2022-10-09T01:23:15.014Z,10.00
2022-10-09T01:25:55.095Z,10.00
2022-10-09T01:28:29.228Z,9.90
2022-10-09T01:31:01.244Z,9.90
2022-10-09T01:33:31.875Z,9.90
2022-10-09T01:36:02.245Z,9.90
2022-10-09T01:38:31.969Z,9.80
2022-10-09T01:41:00.837Z,9.80
2022-10-09T01:43:31.045Z,9.80
2022-10-09T01:46:24.887Z,9.80
2022-10-09T01:49:04.129Z,9.70
2022-10-09T01:51:41.075Z,9.70
2022-10-09T01:54:12.095Z,9.70
2022-10-09T01:56:41.783Z,9.60
2022-10-09T01:59:16.094Z,9.60
2022-10-09T02:01:47.767Z,9.60
2022-10-09T02:04:19.943Z,9.60
2022-10-09T02:06:49.429Z,9.50
2022-10-09T02:09:19.366Z,9.50
2022-10-09T02:11:56.022Z,9.50
2022-10-09T02:14:26.304Z,9.40
2022-10-09T02:17:02.505Z,9.40
2022-10-09T02:19:37.211Z,9.40
2022-10-09T02:22:12.052Z,9.40
2022-10-09T02:24:42.492Z,9.30
2022-10-09T02:27:15.046Z,9.30
2022-10-09T02:29:49.751Z,9.30
2022-10-09T02:32:18.883Z,9.30
2022-10-09T02:34:47.818Z,9.30
2022-10-09T02:37:16.743Z,9.20
2022-10-09T02:39:46.991Z,9.20
2022-10-09T02:42:15.807Z,9.10
2022-10-09T02:44:45.820Z,9.10
2022-10-09T02:47:14.607Z,9.00
2022-10-09T02:49:43.771Z,8.90
2022-10-09T02:52:14.144Z,8.90
2022-10-09T02:54:42.820Z,9.00
2022-10-09T02:57:11.474Z,9.00
2022-10-09T02:59:40.257Z,9.00
2022-10-09T03:02:13.751Z,8.90
2022-10-09T03:04:42.716Z,8.80
2022-10-09T03:07:11.364Z,8.80
2022-10-09T03:09:40.346Z,8.90
2022-10-09T03:12:10.242Z,8.90
2022-10-09T03:14:38.968Z,8.80
2022-10-09T03:17:07.778Z,8.80
2022-10-09T03:19:37.858Z,8.80
2022-10-09T03:22:06.645Z,8.80
2022-10-09T03:24:35.577Z,8.80
2022-10-09T03:27:04.448Z,8.80
2022-10-09T03:29:33.199Z,8.80
2022-10-09T03:32:02.042Z,8.70
2022-10-09T03:34:33.000Z,8.70
2022-10-09T03:37:03.402Z,8.60
2022-10-09T03:39:33.432Z,8.60
2022-10-09T03:42:02.108Z,8.60
2022-10-09T03:44:31.119Z,8.50
2022-10-09T03:46:59.967Z,8.50
2022-10-09T03:49:28.771Z,8.50
2022-10-09T03:51:57.552Z,8.50
2022-10-09T03:54:28.470Z,8.50
2022-10-09T03:56:57.438Z,8.50
2022-10-09T03:59:27.981Z,8.50
2022-10-09T04:01:56.799Z,8.50
2022-10-09T04:04:25.656Z,8.50
2022-10-09T04:06:54.621Z,8.50
2022-10-09T04:09:23.419Z,8.40
2022-10-09T04:11:54.687Z,8.40
2022-10-09T04:14:23.320Z,8.40
2022-10-09T04:16:54.437Z,8.40
2022-10-09T04:19:23.251Z,8.30
2022-10-09T04:21:52.107Z,8.30
2022-10-09T04:24:20.831Z,8.30
2022-10-09T04:26:50.909Z,8.30
2022-10-09T04:29:21.171Z,8.20
2022-10-09T04:31:52.992Z,8.30
2022-10-09T04:34:21.823Z,8.20
2022-10-09T04:36:50.506Z,8.20
2022-10-09T04:39:19.355Z,8.20
2022-10-09T04:41:48.185Z,8.20
2022-10-09T04:44:17.027Z,8.20
2022-10-09T04:46:47.169Z,8.20
2022-10-09T04:49:16.229Z,8.10
2022-10-09T04:51:45.491Z,8.10
2022-10-09T04:54:14.415Z,8.10
2022-10-09T04:56:43.144Z,8.10
2022-10-09T04:59:12.736Z,8.10
2022-10-09T05:01:43.785Z,8.00
2022-10-09T05:04:13.993Z,8.00
2022-10-09T05:06:42.701Z,8.00
2022-10-09T05:09:11.454Z,8.00
2022-10-09T05:11:42.701Z,8.10
2022-10-09T05:14:12.813Z,8.00
2022-10-09T05:17:08.322Z,8.10
2022-10-09T05:19:32.535Z,8.10
2022-10-09T05:22:01.759Z,8.10
2022-10-09T05:24:30.817Z,8.10
2022-10-09T05:26:59.606Z,8.10
2022-10-09T05:29:28.403Z,8.10
2022-10-09T05:31:57.141Z,8.10
2022-10-09T05:34:28.023Z,8.10
2022-10-09T05:36:58.370Z,8.10
2022-10-09T05:39:27.223Z,8.10
2022-10-09T05:41:56.123Z,8.10
2022-10-09T05:44:25.127Z,8.20
2022-10-09T05:46:53.926Z,8.20
2022-10-09T05:49:22.777Z,8.20
2022-10-09T05:51:51.502Z,8.30
2022-10-09T05:54:21.621Z,8.30
2022-10-09T05:56:50.402Z,8.30
2022-10-09T05:59:20.408Z,8.40
2022-10-09T06:01:50.666Z,8.50
2022-10-09T06:04:21.424Z,8.50
2022-10-09T06:06:51.000Z,8.50
2022-10-09T06:09:23.449Z,8.60
2022-10-09T06:11:55.143Z,8.60
2022-10-09T06:14:24.615Z,8.70
2022-10-09T06:16:53.523Z,8.70
2022-10-09T06:19:23.098Z,8.70
2022-10-09T06:21:52.269Z,8.80
2022-10-09T06:24:28.856Z,8.80
2022-10-09T06:26:58.753Z,8.90
2022-10-09T06:29:30.247Z,8.90
2022-10-09T06:31:58.989Z,9.00
2022-10-09T06:34:28.059Z,8.90
2022-10-09T06:36:56.903Z,9.00
2022-10-09T06:39:27.355Z,9.10
2022-10-09T06:41:56.084Z,9.10
2022-10-09T06:44:32.013Z,9.10
2022-10-09T06:47:00.875Z,9.20
2022-10-09T06:49:29.886Z,9.20
2022-10-09T06:51:58.736Z,9.30
2022-10-09T06:54:29.211Z,9.30
2022-10-09T06:56:57.966Z,9.30
2022-10-09T06:59:26.828Z,9.30
2022-10-09T07:01:57.082Z,9.30
2022-10-09T07:04:26.003Z,9.40
2022-10-09T07:06:55.052Z,9.40
2022-10-09T07:09:23.753Z,9.50
2022-10-09T07:11:53.905Z,9.40
2022-10-09T07:14:22.649Z,9.40
2022-10-09T07:16:53.452Z,9.50
2022-10-09T07:19:22.228Z,9.50
2022-10-09T07:21:51.541Z,9.50
2022-10-09T07:24:21.424Z,9.50
2022-10-09T07:26:50.243Z,9.60
2022-10-09T07:29:20.734Z,9.60
2022-10-09T07:31:49.991Z,9.70
2022-10-09T07:34:18.904Z,9.80
2022-10-09T07:36:47.690Z,9.90
2022-10-09T07:39:19.074Z,10.00
2022-10-09T07:41:48.890Z,10.00
2022-10-09T07:44:19.165Z,10.00
2022-10-09T07:46:47.917Z,10.00
2022-10-09T07:49:16.875Z,10.10
2022-10-09T07:51:45.609Z,10.20
2022-10-09T07:54:14.470Z,10.30
2022-10-09T07:56:43.198Z,10.40
2022-10-09T07:59:17.762Z,10.50
2022-10-09T08:01:47.870Z,10.50
2022-10-09T08:04:17.148Z,10.60
2022-10-09T08:06:45.807Z,10.80
2022-10-09T08:09:14.514Z,10.90
2022-10-09T08:11:43.242Z,10.90
2022-10-09T08:14:18.233Z,11.00
2022-10-09T08:16:49.813Z,11.10
2022-10-09T08:19:18.539Z,11.20
2022-10-09T08:21:47.324Z,11.10
2022-10-09T08:24:16.007Z,11.10
2022-10-09T08:26:45.487Z,11.20
2022-10-09T08:29:16.614Z,11.30
2022-10-09T08:31:46.386Z,11.40
2022-10-09T08:34:16.528Z,11.30
2022-10-09T08:36:45.377Z,11.40
2022-10-09T08:39:14.659Z,11.40
2022-10-09T08:41:46.179Z,11.50
2022-10-09T08:44:19.863Z,11.70
2022-10-09T08:47:03.932Z,11.70
2022-10-09T08:49:42.849Z,11.50
2022-10-09T08:52:25.763Z,11.60
2022-10-09T08:54:57.226Z,11.60
2022-10-09T08:57:30.963Z,11.70
2022-10-09T08:59:59.679Z,11.70
2022-10-09T09:02:42.029Z,11.80
2022-10-09T09:05:24.089Z,12.00
2022-10-09T09:08:00.512Z,12.10
2022-10-09T09:10:39.503Z,12.00
2022-10-09T09:13:23.553Z,12.20
2022-10-09T09:15:56.255Z,12.30
2022-10-09T09:18:41.968Z,12.40
2022-10-09T09:21:23.838Z,12.50
2022-10-09T09:23:53.029Z,12.50
2022-10-09T09:26:23.205Z,12.50
2022-10-09T09:28:57.016Z,12.50
2022-10-09T09:31:31.565Z,12.60
2022-10-09T09:34:07.039Z,12.60
2022-10-09T09:36:41.574Z,12.50
2022-10-09T09:39:55.664Z,12.60
2022-10-09T09:42:04.017Z,12.70
2022-10-09T09:44:34.588Z,12.70
2022-10-09T09:47:03.810Z,12.90
2022-10-09T09:49:32.446Z,12.80
2022-10-09T09:52:03.366Z,13.00
2022-10-09T09:54:32.233Z,13.10
2022-10-09T09:57:21.875Z,13.20
2022-10-09T09:59:50.881Z,13.30
2022-10-09T10:02:21.886Z,13.20
2022-10-09T10:04:52.832Z,13.20
2022-10-09T10:07:36.184Z,13.20
2022-10-09T10:10:07.341Z,13.50
2022-10-09T10:12:42.221Z,13.60
2022-10-09T10:15:22.433Z,13.90
2022-10-09T10:17:58.908Z,13.80
2022-10-09T10:20:28.284Z,13.70
2022-10-09T10:23:00.357Z,13.80
2022-10-09T10:25:33.066Z,13.80
2022-10-09T10:28:07.104Z,13.80
2022-10-09T10:30:39.763Z,13.90
2022-10-09T10:33:19.660Z,14.10
2022-10-09T10:35:52.820Z,14.40
2022-10-09T10:38:33.679Z,14.30
2022-10-09T10:41:12.482Z,14.20
2022-10-09T10:43:44.576Z,14.20
2022-10-09T10:46:20.232Z,14.20
2022-10-09T10:48:50.153Z,14.30
2022-10-09T10:51:51.945Z,14.40
2022-10-09T10:54:39.412Z,14.70
2022-10-09T10:57:16.936Z,14.60
2022-10-09T10:59:56.796Z,14.60
2022-10-09T11:02:59.247Z,14.70
2022-10-09T11:05:37.722Z,14.40
2022-10-09T11:08:48.090Z,14.60
2022-10-09T11:11:26.754Z,14.90
2022-10-09T11:14:09.492Z,15.30
2022-10-09T11:16:50.465Z,15.30
2022-10-09T11:19:40.547Z,15.10
2022-10-09T11:22:24.323Z,14.90
2022-10-09T11:25:22.886Z,14.70
2022-10-09T11:27:59.163Z,14.60
2022-10-09T11:30:29.097Z,14.80
2022-10-09T11:33:02.378Z,15.00
2022-10-09T11:35:36.127Z,15.10
2022-10-09T11:38:08.619Z,14.80
2022-10-09T11:40:42.793Z,14.60
2022-10-09T11:43:22.249Z,14.50
2022-10-09T11:45:57.001Z,14.30
2022-10-09T11:48:35.530Z,14.20
2022-10-09T11:51:09.803Z,14.20
2022-10-09T11:53:40.208Z,14.30
2022-10-09T11:56:20.318Z,14.70
2022-10-09T11:58:59.795Z,15.10
2022-10-09T12:01:33.226Z,15.60
2022-10-09T12:04:05.623Z,15.20
2022-10-09T12:06:46.221Z,15.00
2022-10-09T12:09:23.204Z,15.10
2022-10-09T12:12:01.778Z,15.20
2022-10-09T12:14:32.425Z,15.30
2022-10-09T12:17:01.994Z,15.30
2022-10-09T12:19:37.126Z,15.10
2022-10-09T12:22:08.234Z,15.10
2022-10-09T12:24:40.667Z,15.20
2022-10-09T12:27:10.168Z,15.10
2022-10-09T12:29:46.489Z,15.10
2022-10-09T12:32:19.569Z,15.00
2022-10-09T12:34:50.773Z,15.30
2022-10-09T12:37:20.867Z,15.40
2022-10-09T12:39:51.141Z,15.30
2022-10-09T12:42:23.428Z,15.10
2022-10-09T12:44:56.575Z,14.90
2022-10-09T12:47:27.781Z,14.70
2022-10-09T12:50:06.989Z,14.60
2022-10-09T12:52:36.929Z,14.70
2022-10-09T12:55:23.572Z,14.80
2022-10-09T12:57:53.658Z,14.60
2022-10-09T13:00:23.916Z,14.60
2022-10-09T13:02:53.040Z,14.40
2022-10-09T13:05:22.108Z,14.30
2022-10-09T13:07:55.295Z,14.30
2022-10-09T13:10:27.025Z,14.20
2022-10-09T13:12:57.993Z,14.20
2022-10-09T13:15:34.648Z,14.20
2022-10-09T13:18:14.838Z,14.20
2022-10-09T13:20:43.527Z,14.40
2022-10-09T13:23:29.357Z,14.60
2022-10-09T13:26:03.164Z,14.80
2022-10-09T13:28:32.521Z,14.70
2022-10-09T13:31:09.115Z,14.80
2022-10-09T13:33:37.827Z,14.80
2022-10-09T13:36:07.032Z,14.80
2022-10-09T13:38:37.151Z,14.60
2022-10-09T13:41:06.088Z,14.50
2022-10-09T13:43:35.107Z,14.50
2022-10-09T13:46:03.891Z,14.40
2022-10-09T13:48:35.011Z,14.30
2022-10-09T13:51:03.922Z,14.30
2022-10-09T13:53:33.193Z,14.20
2022-10-09T13:56:02.003Z,14.20
2022-10-09T13:58:32.248Z,14.20
2022-10-09T14:01:04.242Z,14.20
2022-10-09T14:03:36.016Z,14.20
2022-10-09T14:06:05.105Z,14.30
2022-10-09T14:08:35.743Z,14.30
2022-10-09T14:11:07.626Z,14.40
2022-10-09T14:13:36.443Z,14.40
2022-10-09T14:16:06.535Z,14.30
2022-10-09T14:18:36.778Z,14.30
2022-10-09T14:21:14.026Z,14.30
2022-10-09T14:23:45.705Z,14.40
2022-10-09T14:26:14.741Z,14.50
2022-10-09T14:28:43.795Z,14.50
2022-10-09T14:31:13.524Z,14.40
2022-10-09T14:33:43.829Z,14.30
2022-10-09T14:36:15.386Z,14.30
2022-10-09T14:38:44.363Z,14.20
2022-10-09T14:41:15.185Z,14.10
2022-10-09T14:43:44.041Z,14.00
2022-10-09T14:46:17.225Z,14.00
2022-10-09T14:48:48.771Z,13.90
2022-10-09T14:51:19.592Z,13.90
2022-10-09T14:53:49.746Z,13.80
2022-10-09T14:56:20.575Z,13.80
2022-10-09T14:58:49.539Z,13.80
2022-10-09T15:01:19.726Z,13.80
2022-10-09T15:03:50.005Z,13.80
2022-10-09T15:06:24.002Z,13.80
2022-10-09T15:08:55.978Z,13.80
2022-10-09T15:11:25.002Z,13.80
2022-10-09T15:13:53.807Z,13.80
2022-10-09T15:16:23.511Z,13.80
2022-10-09T15:18:55.464Z,13.80
2022-10-09T15:21:26.632Z,13.80
2022-10-09T15:23:56.662Z,13.70
2022-10-09T15:26:26.249Z,13.70
2022-10-09T15:28:55.067Z,13.70
2022-10-09T15:31:26.821Z,13.60
2022-10-09T15:33:58.792Z,13.60
2022-10-09T15:36:27.780Z,13.50
2022-10-09T15:38:57.165Z,13.50
2022-10-09T15:41:27.720Z,13.50
2022-10-09T15:43:58.341Z,13.40
2022-10-09T15:46:27.478Z,13.40
2022-10-09T15:48:57.995Z,13.30
2022-10-09T15:51:28.298Z,13.20
2022-10-09T15:53:57.407Z,13.20
2022-10-09T15:56:26.395Z,13.20
2022-10-09T15:58:57.090Z,13.10
2022-10-09T16:01:26.364Z,13.00
2022-10-09T16:03:55.140Z,13.00
2022-10-09T16:06:25.185Z,12.90
2022-10-09T16:08:57.470Z,12.80
2022-10-09T16:11:27.157Z,12.70
2022-10-09T16:13:57.319Z,12.60
2022-10-09T16:16:28.555Z,12.50
2022-10-09T16:18:58.177Z,12.50
2022-10-09T16:21:30.283Z,12.50
2022-10-09T16:24:00.264Z,12.40
2022-10-09T16:26:30.618Z,12.40
2022-10-09T16:29:01.329Z,12.30
2022-10-09T16:31:34.814Z,12.30
2022-10-09T16:34:04.512Z,12.20
2022-10-09T16:36:35.057Z,12.20
2022-10-09T16:39:03.998Z,12.20
2022-10-09T16:41:32.769Z,12.20
2022-10-09T16:44:02.916Z,12.10
2022-10-09T16:49:04.857Z,12.00
2022-10-09T16:51:36.633Z,11.90
2022-10-09T16:54:06.889Z,11.90
2022-10-09T16:56:37.850Z,11.80
2022-10-09T16:59:08.403Z,11.80
2022-10-09T17:01:40.332Z,11.90
2022-10-09T17:04:09.091Z,11.90
2022-10-09T17:06:41.507Z,11.90
2022-10-09T17:09:14.078Z,11.90
2022-10-09T17:11:43.797Z,11.90
2022-10-09T17:14:13.192Z,11.90
2022-10-09T17:16:44.294Z,11.90
2022-10-09T17:19:13.015Z,11.80
2022-10-09T17:21:44.848Z,11.70
2022-10-09T17:24:16.024Z,11.60
2022-10-09T17:26:44.720Z,11.50
2022-10-09T17:29:15.019Z,11.50
2022-10-09T17:31:44.011Z,11.40
2022-10-09T17:34:14.180Z,11.30
2022-10-09T17:36:45.759Z,11.20
2022-10-09T17:39:17.784Z,11.20
2022-10-09T17:41:47.943Z,11.10
2022-10-09T17:44:17.024Z,11.10
2022-10-09T17:46:45.742Z,11.10
2022-10-09T17:49:17.632Z,11.00
2022-10-09T17:51:49.345Z,10.90
2022-10-09T17:54:19.205Z,10.90
2022-10-09T17:56:48.616Z,10.80
2022-10-09T17:59:18.837Z,10.80
2022-10-09T18:01:48.977Z,10.90
2022-10-09T18:04:19.123Z,10.90
2022-10-09T18:06:51.634Z,10.90
2022-10-09T18:09:23.126Z,10.90
2022-10-09T18:11:55.111Z,10.90
2022-10-09T18:14:28.223Z,10.90
2022-10-09T18:16:59.248Z,10.80
2022-10-09T18:19:29.192Z,10.70
2022-10-09T18:22:01.575Z,10.60
2022-10-09T18:24:31.339Z,10.50
2022-10-09T18:27:00.795Z,10.50
2022-10-09T18:29:31.853Z,10.40
2022-10-09T18:32:00.618Z,10.30
2022-10-09T18:34:29.503Z,10.30
2022-10-09T18:36:59.656Z,10.20
2022-10-09T18:39:29.086Z,10.20
2022-10-09T18:41:58.396Z,10.10
2022-10-09T18:44:27.484Z,10.20
2022-10-09T18:46:58.990Z,10.10
2022-10-09T18:49:31.952Z,10.20
2022-10-09T18:52:04.380Z,10.30
2022-10-09T18:54:33.271Z,10.20
2022-10-09T18:57:03.730Z,10.10
2022-10-09T18:59:33.173Z,10.10
2022-10-09T19:02:01.823Z,10.10
2022-10-09T19:04:30.847Z,10.10
2022-10-09T19:07:01.131Z,10.20
2022-10-09T19:09:29.976Z,10.20
2022-10-09T19:11:58.755Z,10.20
2022-10-09T19:14:27.489Z,10.20
2022-10-09T19:16:56.804Z,10.10
2022-10-09T19:19:26.754Z,10.00
2022-10-09T19:21:58.116Z,10.00
2022-10-09T19:24:31.024Z,9.80
2022-10-09T19:27:03.233Z,9.70
2022-10-09T19:29:31.957Z,9.60
2022-10-09T19:32:00.856Z,9.50
2022-10-09T19:34:31.836Z,9.40
2022-10-09T19:37:02.778Z,9.40
2022-10-09T19:39:33.749Z,9.30
2022-10-09T19:42:02.378Z,9.30
2022-10-09T19:44:31.214Z,9.40
2022-10-09T19:47:00.381Z,9.40
2022-10-09T19:49:31.738Z,9.40
2022-10-09T19:52:00.385Z,9.30
2022-10-09T19:54:29.176Z,9.30
2022-10-09T19:57:00.133Z,9.20
2022-10-09T19:59:29.962Z,9.20
2022-10-09T20:01:58.814Z,9.10
2022-10-09T20:04:27.614Z,8.90
2022-10-09T20:06:56.657Z,8.80
2022-10-09T20:09:25.488Z,8.80
2022-10-09T20:11:54.260Z,8.70
2022-10-09T20:14:25.353Z,8.70
2022-10-09T20:16:54.364Z,8.60
2022-10-09T20:19:25.149Z,8.50
2022-10-09T20:21:55.272Z,8.50
2022-10-09T20:24:24.005Z,8.30
2022-10-09T20:26:52.901Z,8.20
2022-10-09T20:29:21.627Z,8.20
2022-10-09T20:31:52.165Z,8.20
2022-10-09T20:34:20.827Z,8.20
2022-10-09T20:36:49.908Z,8.20
2022-10-09T20:39:19.715Z,8.20
2022-10-09T20:41:49.498Z,8.30
2022-10-09T20:44:18.227Z,8.30
2022-10-09T20:46:46.926Z,8.40
2022-10-09T20:49:17.342Z,8.30
2022-10-09T20:51:46.091Z,8.40
2022-10-09T20:54:18.619Z,8.30
2022-10-09T20:56:47.820Z,8.30
2022-10-09T20:59:18.171Z,8.30
2022-10-09T21:01:47.305Z,8.30
2022-10-09T21:04:17.410Z,8.20
2022-10-09T21:06:46.066Z,8.20
2022-10-09T21:09:14.890Z,8.20
2022-10-09T21:11:45.851Z,8.10
2022-10-09T21:14:14.627Z,8.10
2022-10-09T21:16:43.470Z,8.20
2022-10-09T21:19:13.022Z,8.20
2022-10-09T21:21:46.301Z,8.20
2022-10-09T21:24:17.501Z,8.10
2022-10-09T21:26:47.400Z,8.00
2022-10-09T21:29:16.476Z,8.00
2022-10-09T21:31:45.234Z,8.10
2022-10-09T21:34:14.048Z,8.10
2022-10-09T21:37:09.012Z,8.10
2022-10-09T21:39:35.184Z,8.00
2022-10-09T21:42:03.745Z,8.00
2022-10-09T21:44:32.559Z,8.00
2022-10-09T21:47:01.264Z,8.00
2022-10-09T21:49:30.815Z,7.90
2022-10-09T21:52:00.804Z,7.90
2022-10-09T21:54:29.680Z,7.80
2022-10-09T21:56:58.484Z,7.70
2022-10-09T21:59:27.355Z,7.80
2022-10-09T22:01:56.133Z,7.80
2022-10-09T22:04:24.847Z,7.80
2022-10-09T22:06:53.696Z,7.80
2022-10-09T22:09:23.765Z,7.80
2022-10-09T22:11:52.770Z,7.70
2022-10-09T22:14:21.471Z,7.70
2022-10-09T22:16:50.218Z,7.80
2022-10-09T22:19:19.838Z,7.70
2022-10-09T22:21:49.777Z,7.70
2022-10-09T22:24:18.518Z,7.60
2022-10-09T22:26:48.702Z,7.60
2022-10-09T22:29:17.598Z,7.50
2022-10-09T22:31:46.421Z,7.50
2022-10-09T22:34:15.066Z,7.40
2022-10-09T22:36:43.852Z,7.40
2022-10-09T22:39:13.432Z,7.40
2022-10-09T22:41:42.180Z,7.40
2022-10-09T22:44:13.442Z,7.40
2022-10-09T22:46:43.961Z,7.30
2022-10-09T22:49:15.454Z,7.40
2022-10-09T22:51:44.456Z,7.30
2022-10-09T22:54:14.216Z,7.30
2022-10-09T22:56:46.971Z,7.20
2022-10-09T22:59:19.138Z,7.20
2022-10-09T23:01:51.536Z,7.20
2022-10-09T23:04:21.804Z,7.20
2022-10-09T23:06:52.742Z,7.10
2022-10-09T23:09:22.874Z,7.10
2022-10-09T23:11:52.161Z,7.00
2022-10-09T23:14:22.337Z,7.00
2022-10-09T23:16:51.075Z,7.00
2022-10-09T23:19:19.904Z,7.00
2022-10-09T23:21:48.761Z,7.00
2022-10-09T23:24:18.118Z,7.10
2022-10-09T23:26:51.053Z,7.10
2022-10-09T23:29:24.294Z,7.10
2022-10-09T23:31:54.214Z,7.00
2022-10-09T23:34:23.084Z,6.90
2022-10-09T23:36:51.904Z,6.80
2022-10-09T23:39:20.868Z,6.70
2022-10-09T23:41:49.715Z,6.70
2022-10-09T23:44:22.006Z,6.60
2022-10-09T23:46:52.506Z,6.50
2022-10-09T23:49:21.289Z,6.40
2022-10-09T23:51:50.003Z,6.50
2022-10-09T23:54:18.727Z,6.50
2022-10-09T23:56:47.419Z,6.50
2022-10-09T23:59:16.169Z,6.50
